Time;durP1;ratioP1;P1;durP2;ratioP2;P2;SDS_P1;SDS_P2;PMS_P1;PMS_P2;Temp;Humidity;BMP_temperature;BMP_pressure;BME280_temperature;BME280_humidity;BME280_pressure;Samples;Min_cycle;Max_cycle;Signal;HPM_P1;HPM_P2
2023/02/10 00:01:59;;;;;;;33.40;21.00;;;4.70;99.90;;;;;;5016843;28;20032;-88
2023/02/10 00:04:25;;;;;;;29.85;17.77;;;4.70;99.90;;;;;;4982905;28;20378;-88
2023/02/10 00:06:50;;;;;;;27.48;17.60;;;4.70;99.90;;;;;;4983061;28;20034;-88
2023/02/10 00:09:16;;;;;;;29.70;18.08;;;4.70;99.90;;;;;;4999077;28;20037;-88
2023/02/10 00:11:59;;;;;;;27.67;17.88;;;4.70;99.90;;;;;;4983180;28;20034;-88
2023/02/10 00:14:25;;;;;;;29.10;17.42;;;4.70;99.90;;;;;;4985320;28;20021;-88
2023/02/10 00:16:53;;;;;;;30.05;16.98;;;4.60;99.90;;;;;;4999066;28;20061;-89
2023/02/10 00:19:20;;;;;;;32.13;18.92;;;4.60;99.90;;;;;;4983033;28;20054;-88
2023/02/10 00:21:46;;;;;;;27.83;15.63;;;4.60;99.90;;;;;;4999878;28;20017;-88
2023/02/10 00:24:11;;;;;;;28.17;17.52;;;4.50;99.90;;;;;;5033883;28;20089;-85
2023/02/10 00:26:37;;;;;;;30.52;18.33;;;4.50;99.90;;;;;;5023205;28;20057;-89
2023/02/10 00:29:04;;;;;;;27.92;16.70;;;4.50;99.90;;;;;;5006374;28;20010;-89
2023/02/10 00:31:29;;;;;;;28.40;17.90;;;4.40;99.90;;;;;;5002745;28;20029;-86
2023/02/10 00:33:55;;;;;;;30.27;18.25;;;4.40;99.90;;;;;;4998672;28;20026;-87
2023/02/10 00:36:23;;;;;;;31.00;18.83;;;4.40;99.90;;;;;;4998564;28;20025;-87
2023/02/10 00:38:49;;;;;;;35.08;18.58;;;4.40;99.90;;;;;;4982847;28;20018;-87
2023/02/10 00:41:17;;;;;;;23.83;16.70;;;4.40;99.90;;;;;;4982089;28;20040;-87
2023/02/10 00:43:44;;;;;;;29.08;17.35;;;4.30;99.90;;;;;;4998309;28;20034;-88
2023/02/10 00:46:11;;;;;;;26.95;16.77;;;4.30;99.90;;;;;;4982254;28;20034;-87
2023/02/10 00:48:40;;;;;;;33.25;17.88;;;4.30;99.90;;;;;;4998450;28;20026;-87
2023/02/10 00:51:06;;;;;;;26.25;16.20;;;4.30;99.90;;;;;;4998664;28;20025;-88
2023/02/10 00:53:33;;;;;;;29.20;18.00;;;4.30;99.90;;;;;;4982394;28;20130;-89
2023/02/10 00:55:59;;;;;;;57.28;20.67;;;4.30;99.90;;;;;;4998429;28;20036;-87
2023/02/10 00:58:25;;;;;;;28.95;18.67;;;4.20;99.90;;;;;;4998576;28;20108;-87
2023/02/10 01:00:51;;;;;;;31.25;19.58;;;4.20;99.90;;;;;;4976627;28;20043;-88
2023/02/10 01:03:20;;;;;;;30.60;19.00;;;4.10;99.90;;;;;;4975672;28;20037;-87
2023/02/10 01:05:48;;;;;;;35.53;18.42;;;4.10;99.90;;;;;;4975071;28;20027;-88
2023/02/10 01:08:14;;;;;;;37.13;20.50;;;4.10;99.90;;;;;;4975577;28;20110;-87
2023/02/10 01:10:41;;;;;;;38.80;21.10;;;4.10;99.90;;;;;;4959208;28;20126;-87
2023/02/10 01:13:08;;;;;;;47.58;24.05;;;4.10;99.90;;;;;;4975485;28;20473;-87
2023/02/10 01:15:34;;;;;;;46.30;23.73;;;4.10;99.90;;;;;;4959325;28;20129;-87
2023/02/10 01:18:00;;;;;;;48.03;23.50;;;4.10;99.90;;;;;;4959749;28;20118;-87
2023/02/10 01:20:26;;;;;;;42.25;23.77;;;4.10;99.90;;;;;;4975457;28;20350;-86
2023/02/10 01:22:54;;;;;;;80.63;25.83;;;4.10;99.90;;;;;;4975796;28;20019;-87
2023/02/10 01:25:20;;;;;;;60.40;25.75;;;4.10;99.90;;;;;;4960006;28;20018;-88
2023/02/10 01:27:45;;;;;;;44.67;25.13;;;4.10;99.90;;;;;;4975617;28;20037;-87
2023/02/10 01:30:12;;;;;;;40.05;25.10;;;4.10;99.90;;;;;;4958890;28;20023;-87
2023/02/10 01:32:37;;;;;;;40.83;25.25;;;4.10;99.90;;;;;;4959069;28;20073;-87
2023/02/10 01:35:04;;;;;;;60.13;25.70;;;4.10;99.90;;;;;;4975602;28;20030;-88
2023/02/10 01:37:30;;;;;;;50.08;24.70;;;4.10;99.90;;;;;;4975377;28;20439;-87
2023/02/10 01:39:55;;;;;;;156.02;26.40;;;4.10;99.90;;;;;;4967906;28;20031;-87
2023/02/10 01:42:21;;;;;;;132.32;25.25;;;4.10;99.90;;;;;;4992524;28;20019;-87
2023/02/10 01:44:47;;;;;;;56.40;26.20;;;4.10;99.90;;;;;;4998218;28;20031;-88
2023/02/10 01:47:13;;;;;;;76.47;24.23;;;4.10;99.90;;;;;;4995468;28;20035;-87
2023/02/10 01:49:45;;;;;;;63.95;24.63;;;4.10;99.90;;;;;;4989894;28;20042;-87
2023/02/10 01:52:17;;;;;;;70.78;28.35;;;4.10;99.90;;;;;;4995908;28;20018;-88
2023/02/10 01:54:50;;;;;;;58.42;26.48;;;4.00;99.90;;;;;;5011400;28;20030;-87
2023/02/10 01:57:17;;;;;;;60.45;23.95;;;4.00;99.90;;;;;;5019134;28;20152;-87
2023/02/10 01:59:43;;;;;;;74.68;25.77;;;4.00;99.90;;;;;;5022747;28;20552;-87
2023/02/10 02:02:13;;;;;;;51.25;24.77;;;4.00;99.90;;;;;;5035821;28;20025;-88
2023/02/10 02:04:57;;;;;;;56.22;25.42;;;4.00;99.90;;;;;;5033440;28;20033;-87
2023/02/10 02:07:26;;;;;;;53.60;23.73;;;4.00;99.90;;;;;;5033518;28;20051;-88
2023/02/10 02:09:55;;;;;;;95.32;26.98;;;4.00;99.90;;;;;;5033375;28;20028;-88
2023/02/10 02:12:35;;;;;;;54.15;24.63;;;4.00;99.90;;;;;;5033205;28;20361;-88
2023/02/10 02:15:43;;;;;;;132.82;26.70;;;4.00;99.90;;;;;;5034610;28;20021;-88
2023/02/10 02:18:20;;;;;;;45.35;23.05;;;4.00;99.90;;;;;;5032904;28;20014;-87
2023/02/10 02:21:05;;;;;;;109.28;25.35;;;4.00;99.90;;;;;;5033310;28;20366;-88
2023/02/10 02:23:37;;;;;;;81.68;23.50;;;4.00;99.90;;;;;;5033077;28;20045;-89
2023/02/10 02:26:11;;;;;;;35.03;21.55;;;4.00;99.90;;;;;;5033153;28;20033;-88
2023/02/10 02:29:09;;;;;;;81.32;22.63;;;3.90;99.90;;;;;;5034684;28;20093;-88
2023/02/10 02:31:57;;;;;;;38.03;22.27;;;3.90;99.90;;;;;;4992880;28;20029;-88
2023/02/10 02:35:02;;;;;;;60.00;21.38;;;3.90;99.90;;;;;;5034935;28;20026;-87
2023/02/10 02:37:37;;;;;;;64.40;21.83;;;3.90;99.90;;;;;;5033605;28;20021;-88
2023/02/10 02:40:04;;;;;;;51.20;20.80;;;3.80;99.90;;;;;;5033043;28;20041;-88
2023/02/10 02:42:32;;;;;;;89.47;22.83;;;3.80;99.90;;;;;;5033166;28;20102;-88
2023/02/10 02:45:13;;;;;;;43.75;21.25;;;3.80;99.90;;;;;;5033396;28;20022;-88
2023/02/10 02:48:17;;;;;;;54.72;20.83;;;3.80;99.90;;;;;;5044154;28;20034;-86
2023/02/10 02:50:58;;;;;;;69.57;22.00;;;3.80;99.90;;;;;;5057051;28;20025;-89
2023/02/10 02:53:46;;;;;;;76.03;22.23;;;3.70;99.90;;;;;;5051377;28;20036;-88
2023/02/10 02:56:11;;;;;;;49.22;20.60;;;3.70;99.90;;;;;;5033303;28;20018;-88
2023/02/10 02:58:58;;;;;;;77.82;21.20;;;3.70;99.90;;;;;;5032690;28;20025;-88
2023/02/10 03:01:37;;;;;;;34.28;20.25;;;3.70;99.90;;;;;;5032048;28;20048;-88
2023/02/10 03:04:03;;;;;;;34.80;19.75;;;3.70;99.90;;;;;;5034213;28;20052;-88
2023/02/10 03:06:29;;;;;;;78.22;22.67;;;3.60;99.90;;;;;;5032970;28;20030;-88
2023/02/10 03:08:55;;;;;;;52.10;21.52;;;3.60;99.90;;;;;;5016029;28;20124;-87
2023/02/10 03:11:21;;;;;;;56.47;21.67;;;3.60;99.90;;;;;;5032885;28;20049;-87
2023/02/10 03:13:47;;;;;;;31.98;20.13;;;3.60;99.90;;;;;;5032243;28;20120;-87
2023/02/10 03:16:13;;;;;;;33.03;20.27;;;3.50;99.90;;;;;;5016350;28;20029;-88
2023/02/10 03:18:39;;;;;;;47.00;20.70;;;3.50;99.90;;;;;;5016057;28;20032;-88
2023/02/10 03:21:05;;;;;;;29.48;18.98;;;3.50;99.90;;;;;;5016237;28;20026;-88
2023/02/10 03:23:31;;;;;;;52.03;22.00;;;3.50;99.90;;;;;;5034126;28;20028;-88
2023/02/10 03:26:00;;;;;;;33.88;19.27;;;3.40;99.90;;;;;;5037260;28;20026;-88
2023/02/10 03:28:26;;;;;;;51.47;21.10;;;3.40;99.90;;;;;;5036037;28;20108;-88
2023/02/10 03:30:55;;;;;;;33.00;21.88;;;3.40;99.90;;;;;;5036100;28;20194;-87
2023/02/10 03:33:21;;;;;;;33.78;20.17;;;3.40;99.90;;;;;;5036228;28;20369;-87
2023/02/10 03:35:49;;;;;;;35.38;20.80;;;3.30;99.90;;;;;;5035436;28;20105;-86
2023/02/10 03:38:15;;;;;;;34.83;21.08;;;3.30;99.90;;;;;;5036004;28;20475;-88
2023/02/10 03:40:43;;;;;;;44.58;21.15;;;3.30;99.90;;;;;;5035919;28;20022;-86
2023/02/10 03:43:09;;;;;;;38.60;22.58;;;3.20;99.90;;;;;;5019473;28;20062;-87
2023/02/10 03:45:35;;;;;;;31.98;20.35;;;3.20;99.90;;;;;;5035638;28;20017;-87
2023/02/10 03:48:00;;;;;;;32.92;21.55;;;3.20;99.90;;;;;;5035245;28;20056;-88
2023/02/10 03:50:26;;;;;;;29.88;19.05;;;3.20;99.90;;;;;;5019520;28;20101;-87
2023/02/10 03:52:52;;;;;;;32.55;21.10;;;3.10;99.90;;;;;;5018940;28;20455;-87
2023/02/10 03:55:19;;;;;;;28.60;19.05;;;3.10;99.90;;;;;;5019187;28;20025;-87
2023/02/10 03:57:45;;;;;;;28.08;18.65;;;3.10;99.90;;;;;;5018992;28;20092;-87
2023/02/10 04:00:12;;;;;;;29.25;18.67;;;3.10;99.90;;;;;;5018723;28;20050;-87
2023/02/10 04:02:38;;;;;;;31.60;20.85;;;3.10;99.90;;;;;;5035366;28;20017;-88
2023/02/10 04:05:04;;;;;;;30.88;20.42;;;3.00;99.90;;;;;;5036448;28;20411;-88
2023/02/10 04:07:29;;;;;;;30.65;19.38;;;3.00;99.90;;;;;;5034961;28;20529;-88
2023/02/10 04:09:55;;;;;;;32.25;20.30;;;3.00;99.90;;;;;;5035361;28;20152;-88
2023/02/10 04:12:21;;;;;;;31.48;19.73;;;3.00;99.90;;;;;;5035295;28;20087;-87
2023/02/10 04:14:47;;;;;;;33.50;21.17;;;3.00;99.90;;;;;;5035184;28;20083;-88
2023/02/10 04:17:12;;;;;;;30.40;19.10;;;3.00;99.90;;;;;;5019108;28;20040;-88
2023/02/10 04:19:38;;;;;;;32.47;20.23;;;3.00;99.90;;;;;;5019207;28;20099;-87
2023/02/10 04:22:04;;;;;;;34.53;20.38;;;2.90;99.90;;;;;;5035152;28;20022;-88
2023/02/10 04:24:30;;;;;;;34.17;21.23;;;2.90;99.90;;;;;;5034999;28;20021;-88
2023/02/10 04:26:55;;;;;;;36.20;21.73;;;2.90;99.90;;;;;;5018260;28;20072;-88
2023/02/10 04:29:22;;;;;;;31.63;20.27;;;2.90;99.90;;;;;;5018782;28;20445;-88
2023/02/10 04:31:47;;;;;;;32.40;20.15;;;2.90;99.90;;;;;;5034785;28;20022;-87
2023/02/10 04:34:13;;;;;;;33.40;20.65;;;2.90;99.90;;;;;;5017549;28;20083;-87
2023/02/10 04:36:48;;;;;;;37.80;20.67;;;2.90;99.90;;;;;;5018956;28;20453;-88
2023/02/10 04:39:14;;;;;;;34.53;22.02;;;2.90;99.90;;;;;;5034723;28;20025;-87
2023/02/10 04:41:40;;;;;;;35.78;20.67;;;2.80;99.90;;;;;;5018374;28;20024;-87
2023/02/10 04:44:06;;;;;;;33.83;20.30;;;2.80;99.90;;;;;;5036314;28;20123;-88
2023/02/10 04:46:34;;;;;;;35.60;21.52;;;2.80;99.90;;;;;;5035738;28;20025;-88
2023/02/10 04:49:00;;;;;;;35.17;21.20;;;2.80;99.90;;;;;;5021459;28;20109;-88
2023/02/10 04:51:25;;;;;;;44.58;23.13;;;2.80;99.90;;;;;;5035525;28;20052;-87
2023/02/10 04:53:51;;;;;;;38.13;22.42;;;2.80;99.90;;;;;;5022673;28;20030;-87
2023/02/10 04:56:17;;;;;;;38.35;22.17;;;2.80;99.90;;;;;;5051945;28;20040;-88
2023/02/10 04:58:42;;;;;;;38.53;22.25;;;2.80;99.90;;;;;;5040600;28;20021;-88
2023/02/10 05:01:08;;;;;;;38.50;21.35;;;2.80;99.90;;;;;;5057492;28;20049;-88
2023/02/10 05:03:34;;;;;;;42.72;23.75;;;2.80;99.90;;;;;;5050306;28;20488;-87
2023/02/10 05:06:05;;;;;;;41.20;23.15;;;2.80;99.90;;;;;;5054053;28;20029;-88
2023/02/10 05:08:30;;;;;;;40.90;23.60;;;2.70;99.90;;;;;;5054550;28;20055;-87
2023/02/10 05:10:56;;;;;;;39.97;22.85;;;2.70;99.90;;;;;;5046201;28;20002;-86
2023/02/10 05:13:22;;;;;;;39.38;23.35;;;2.70;99.90;;;;;;5042336;28;20073;-88
2023/02/10 05:15:48;;;;;;;39.80;24.60;;;2.70;99.90;;;;;;5041399;28;20010;-88
2023/02/10 05:18:13;;;;;;;47.13;23.83;;;2.70;99.90;;;;;;5023085;28;20087;-87
2023/02/10 05:20:39;;;;;;;48.45;25.73;;;2.70;99.90;;;;;;5034746;28;20453;-87
2023/02/10 05:23:05;;;;;;;44.47;26.77;;;2.70;99.90;;;;;;5034117;28;20030;-87
2023/02/10 05:25:30;;;;;;;40.50;24.35;;;2.70;99.90;;;;;;5034244;28;20025;-87
2023/02/10 05:27:56;;;;;;;44.92;26.67;;;2.70;99.90;;;;;;5034216;28;20029;-87
2023/02/10 05:30:22;;;;;;;42.40;23.70;;;2.70;99.90;;;;;;5017660;28;20025;-87
2023/02/10 05:32:52;;;;;;;43.78;24.00;;;2.70;99.90;;;;;;5017399;28;20028;-87
2023/02/10 05:35:18;;;;;;;40.22;24.23;;;2.70;99.90;;;;;;5033540;28;20079;-87
2023/02/10 05:37:43;;;;;;;42.15;22.88;;;2.70;99.90;;;;;;5033972;28;20104;-87
2023/02/10 05:40:09;;;;;;;40.95;23.60;;;2.70;99.90;;;;;;5033183;28;20453;-87
2023/02/10 05:42:35;;;;;;;38.53;23.15;;;2.70;99.90;;;;;;5033838;28;20025;-88
2023/02/10 05:45:01;;;;;;;39.55;22.48;;;2.70;99.90;;;;;;5016827;28;20014;-87
2023/02/10 05:47:26;;;;;;;46.10;23.65;;;2.60;99.90;;;;;;5016935;28;20116;-87
2023/02/10 05:49:52;;;;;;;44.53;25.30;;;2.60;99.90;;;;;;5017477;28;20029;-88
2023/02/10 05:52:18;;;;;;;46.60;26.73;;;2.60;99.90;;;;;;5017077;28;20027;-88
2023/02/10 05:54:43;;;;;;;43.67;24.73;;;2.60;99.90;;;;;;5014556;28;20409;-89
2023/02/10 05:57:12;;;;;;;39.75;24.23;;;2.60;99.90;;;;;;4997457;28;20026;-89
2023/02/10 05:59:37;;;;;;;41.15;24.00;;;2.60;99.90;;;;;;5014471;28;20017;-87
2023/02/10 06:02:03;;;;;;;48.25;26.17;;;2.60;99.90;;;;;;5016564;28;20115;-87
2023/02/10 06:04:29;;;;;;;51.35;26.52;;;2.60;99.90;;;;;;5016776;28;20445;-87
2023/02/10 06:06:55;;;;;;;51.10;28.00;;;2.60;99.90;;;;;;4999993;28;20017;-87
2023/02/10 06:09:22;;;;;;;46.55;24.88;;;2.60;99.90;;;;;;5000224;28;20036;-87
2023/02/10 06:11:50;;;;;;;47.10;26.90;;;2.50;99.90;;;;;;5000253;28;20022;-87
2023/02/10 06:14:15;;;;;;;60.85;30.70;;;2.50;99.90;;;;;;4983828;28;20369;-86
2023/02/10 06:16:41;;;;;;;54.97;28.13;;;2.50;99.90;;;;;;4983857;28;20040;-87
2023/02/10 06:19:07;;;;;;;48.45;26.90;;;2.50;99.90;;;;;;5015778;28;20021;-87
2023/02/10 06:21:32;;;;;;;57.45;29.35;;;2.50;99.90;;;;;;5017154;28;20021;-87
2023/02/10 06:23:58;;;;;;;51.95;27.05;;;2.40;99.90;;;;;;5000319;28;20372;-87
2023/02/10 06:26:24;;;;;;;52.40;28.38;;;2.50;99.90;;;;;;5000539;28;20028;-87
2023/02/10 06:28:52;;;;;;;59.58;30.83;;;2.40;99.90;;;;;;5016817;28;20033;-87
2023/02/10 06:31:18;;;;;;;56.08;29.40;;;2.40;99.90;;;;;;5001438;28;20102;-87
2023/02/10 06:33:45;;;;;;;51.78;29.27;;;2.40;99.90;;;;;;5000428;28;20041;-87
2023/02/10 06:36:15;;;;;;;58.53;31.02;;;2.40;99.90;;;;;;5018265;28;20021;-87
2023/02/10 06:38:42;;;;;;;57.05;28.70;;;2.40;99.90;;;;;;5018891;28;20045;-88
2023/02/10 06:41:07;;;;;;;65.90;31.35;;;2.40;99.90;;;;;;5018516;28;20013;-88
2023/02/10 06:43:33;;;;;;;57.35;30.67;;;2.40;99.90;;;;;;5002569;28;20033;-87
2023/02/10 06:46:02;;;;;;;48.05;27.25;;;2.40;99.90;;;;;;5016170;28;20068;-87
2023/02/10 06:48:27;;;;;;;60.30;31.33;;;2.40;99.90;;;;;;5000009;28;20022;-87
2023/02/10 06:50:53;;;;;;;56.17;29.58;;;2.40;99.90;;;;;;5001846;28;20036;-87
2023/02/10 06:53:20;;;;;;;58.75;29.95;;;2.40;99.90;;;;;;4985983;28;20022;-87
2023/02/10 06:55:45;;;;;;;56.30;32.60;;;2.40;99.90;;;;;;5016702;28;20022;-87
2023/02/10 06:58:11;;;;;;;62.40;30.67;;;2.40;99.90;;;;;;5001614;28;20037;-87
2023/02/10 07:00:37;;;;;;;60.15;31.92;;;2.40;99.90;;;;;;5021286;28;20496;-87
2023/02/10 07:03:07;;;;;;;67.20;32.10;;;2.40;99.90;;;;;;5005354;28;20136;-88
2023/02/10 07:05:35;;;;;;;60.47;32.47;;;2.40;99.90;;;;;;5005578;28;20120;-87
2023/02/10 07:08:03;;;;;;;66.32;33.75;;;2.40;99.90;;;;;;5039432;28;20021;-87
2023/02/10 07:10:30;;;;;;;77.68;36.60;;;2.40;99.90;;;;;;5023342;28;20088;-87
2023/02/10 07:12:56;;;;;;;76.18;33.17;;;2.40;99.90;;;;;;5022817;28;20033;-87
2023/02/10 07:15:22;;;;;;;74.20;34.72;;;2.40;99.90;;;;;;5022037;28;20067;-87
2023/02/10 07:17:50;;;;;;;69.25;33.40;;;2.40;99.90;;;;;;5005552;28;20358;-87
2023/02/10 07:20:17;;;;;;;85.28;37.42;;;2.30;99.90;;;;;;5021939;28;20025;-87
2023/02/10 07:22:43;;;;;;;85.47;38.05;;;2.40;99.90;;;;;;5023554;28;20063;-87
2023/02/10 07:25:09;;;;;;;87.78;38.08;;;2.30;99.90;;;;;;5022079;28;20021;-88
2023/02/10 07:27:37;;;;;;;79.40;36.95;;;2.30;99.90;;;;;;5020493;28;20172;-88
2023/02/10 07:30:03;;;;;;;80.72;35.38;;;2.30;99.90;;;;;;5037544;28;20018;-87
2023/02/10 07:32:29;;;;;;;75.25;31.90;;;2.30;99.90;;;;;;5011203;28;20026;-88
2023/02/10 07:34:55;;;;;;;81.45;32.20;;;2.30;99.90;;;;;;5044449;28;20041;-85
2023/02/10 07:37:23;;;;;;;80.90;33.80;;;2.30;99.90;;;;;;5043787;28;20026;-87
2023/02/10 07:39:49;;;;;;;87.32;33.85;;;2.30;99.90;;;;;;5009790;28;20072;-86
2023/02/10 07:42:15;;;;;;;91.43;35.97;;;2.30;99.90;;;;;;5002884;28;20374;-87
2023/02/10 07:44:40;;;;;;;109.85;36.55;;;2.30;99.90;;;;;;5003559;28;20021;-87
2023/02/10 07:47:06;;;;;;;88.13;35.45;;;2.20;99.90;;;;;;5019075;28;20036;-86
2023/02/10 07:49:32;;;;;;;74.18;33.40;;;2.20;99.90;;;;;;5002619;28;20032;-87
2023/02/10 07:51:58;;;;;;;75.28;31.77;;;2.20;99.90;;;;;;5037025;28;20365;-87
2023/02/10 07:54:24;;;;;;;75.00;32.10;;;2.20;99.90;;;;;;4998393;28;20030;-88
2023/02/10 07:56:49;;;;;;;69.30;29.23;;;2.20;99.90;;;;;;4999072;28;20033;-87
2023/02/10 07:59:15;;;;;;;68.75;30.33;;;2.20;99.90;;;;;;5002334;28;20032;-87
2023/02/10 08:01:42;;;;;;;58.95;26.95;;;2.20;99.90;;;;;;5000939;28;20089;-86
2023/02/10 08:04:12;;;;;;;62.65;28.15;;;2.20;99.90;;;;;;4984417;28;20028;-86
2023/02/10 08:06:37;;;;;;;70.88;30.33;;;2.20;99.90;;;;;;4985501;28;20034;-88
2023/02/10 08:09:03;;;;;;;74.30;29.35;;;2.30;99.90;;;;;;5001213;28;20057;-88
2023/02/10 08:11:29;;;;;;;58.78;29.27;;;2.30;99.90;;;;;;5021893;28;20106;-88
2023/02/10 08:13:55;;;;;;;63.70;30.48;;;2.30;99.90;;;;;;5023182;28;20010;-88
2023/02/10 08:16:21;;;;;;;60.17;29.35;;;2.30;99.90;;;;;;5021816;28;20100;-88
2023/02/10 08:18:46;;;;;;;72.18;31.77;;;2.30;99.90;;;;;;5023444;28;20018;-88
2023/02/10 08:21:12;;;;;;;64.53;29.77;;;2.30;99.90;;;;;;5023027;28;20026;-89
2023/02/10 08:23:37;;;;;;;67.28;30.23;;;2.40;99.90;;;;;;5030520;28;20076;-88
2023/02/10 08:26:11;;;;;;;64.82;31.80;;;2.30;99.90;;;;;;4983578;28;20093;-87
2023/02/10 08:28:38;;;;;;;80.18;31.95;;;2.30;99.90;;;;;;5006676;28;20072;-88
2023/02/10 08:31:06;;;;;;;65.72;29.40;;;2.30;99.90;;;;;;5012538;28;20045;-88
2023/02/10 08:33:41;;;;;;;79.40;30.25;;;2.30;99.90;;;;;;5011136;28;20371;-87
2023/02/10 08:36:11;;;;;;;80.18;30.45;;;2.20;99.90;;;;;;5013424;28;20025;-88
2023/02/10 08:38:38;;;;;;;88.55;30.27;;;2.20;99.90;;;;;;5023959;28;20029;-87
2023/02/10 08:41:04;;;;;;;74.05;31.60;;;2.20;99.90;;;;;;5023090;28;20445;-87
2023/02/10 08:43:30;;;;;;;83.60;30.92;;;2.20;99.90;;;;;;5017633;28;20022;-88
2023/02/10 08:46:00;;;;;;;91.80;32.05;;;2.20;99.90;;;;;;5017788;28;20111;-88
2023/02/10 08:48:28;;;;;;;75.83;31.83;;;2.20;99.90;;;;;;5019615;28;20021;-88
2023/02/10 08:50:54;;;;;;;95.47;31.75;;;2.20;99.90;;;;;;4992260;28;20083;-88
2023/02/10 08:53:20;;;;;;;91.15;30.45;;;2.20;99.90;;;;;;5029148;28;20025;-88
2023/02/10 08:55:59;;;;;;;103.45;33.28;;;2.20;99.90;;;;;;5013183;28;20018;-88
2023/02/10 08:58:27;;;;;;;88.75;30.88;;;2.20;99.90;;;;;;5020592;28;20102;-88
2023/02/10 09:00:53;;;;;;;92.30;32.85;;;2.20;99.90;;;;;;5020943;28;20060;-88
2023/02/10 09:03:22;;;;;;;80.55;30.75;;;2.20;99.90;;;;;;5025100;28;20062;-88
2023/02/10 09:05:48;;;;;;;86.28;31.95;;;2.30;99.90;;;;;;5000391;28;20026;-89
2023/02/10 09:08:15;;;;;;;90.45;32.20;;;2.30;99.90;;;;;;5013424;28;20026;-88
2023/02/10 09:10:52;;;;;;;94.95;35.90;;;2.30;99.90;;;;;;5009171;28;20404;-86
2023/02/10 09:13:21;;;;;;;101.90;35.55;;;2.30;99.90;;;;;;5014136;28;20052;-88
2023/02/10 09:15:47;;;;;;;98.68;33.22;;;2.40;99.90;;;;;;5006362;28;20035;-87
2023/02/10 09:18:12;;;;;;;86.57;31.42;;;2.40;99.90;;;;;;5026538;28;20021;-87
2023/02/10 09:20:46;;;;;;;104.68;34.05;;;2.50;99.90;;;;;;5013301;28;20025;-87
2023/02/10 09:23:12;;;;;;;99.43;34.35;;;2.50;99.90;;;;;;5004628;28;20037;-88
2023/02/10 09:25:38;;;;;;;80.50;32.00;;;2.60;99.90;;;;;;5016674;28;20084;-87
2023/02/10 09:28:06;;;;;;;88.13;32.53;;;2.60;99.90;;;;;;5009933;28;20030;-88
2023/02/10 09:30:32;;;;;;;99.35;33.40;;;2.60;99.90;;;;;;4984632;28;20112;-88
2023/02/10 09:32:58;;;;;;;102.32;33.83;;;2.70;99.90;;;;;;5038832;28;20141;-87
2023/02/10 09:35:25;;;;;;;114.35;36.58;;;2.70;99.90;;;;;;5028903;28;20399;-87
2023/02/10 09:37:51;;;;;;;93.93;35.72;;;2.70;99.90;;;;;;5010417;28;20370;-87
2023/02/10 09:40:24;;;;;;;107.05;34.80;;;2.70;99.90;;;;;;5012532;28;20022;-88
2023/02/10 09:42:53;;;;;;;97.00;33.95;;;2.80;99.90;;;;;;5011832;28;20020;-87
2023/02/10 09:45:25;;;;;;;100.32;34.47;;;2.80;99.90;;;;;;5006293;28;20033;-90
2023/02/10 09:47:59;;;;;;;96.15;32.85;;;2.90;99.90;;;;;;5013836;28;20029;-87
2023/02/10 09:50:44;;;;;;;99.18;34.92;;;2.90;99.90;;;;;;5010074;28;20112;-87
2023/02/10 09:53:24;;;;;;;90.55;31.67;;;2.90;99.90;;;;;;5025718;28;20017;-87
2023/02/10 09:56:01;;;;;;;98.72;33.65;;;3.00;99.90;;;;;;5040596;28;20018;-89
2023/02/10 09:58:42;;;;;;;110.78;32.70;;;3.00;99.90;;;;;;5034328;28;20018;-89
2023/02/10 10:01:15;;;;;;;91.43;32.20;;;3.00;99.90;;;;;;5016686;28;20124;-87
2023/02/10 10:04:09;;;;;;;96.47;33.75;;;3.10;99.90;;;;;;5013671;28;20295;-88
2023/02/10 10:06:39;;;;;;;101.18;33.38;;;3.10;99.90;;;;;;5002991;28;20050;-88
2023/02/10 10:09:08;;;;;;;110.97;33.92;;;3.20;99.90;;;;;;4999852;28;20034;-87
2023/02/10 10:11:42;;;;;;;90.72;32.28;;;3.20;99.90;;;;;;5017934;28;20022;-88
2023/02/10 10:14:24;;;;;;;97.50;33.50;;;3.30;99.90;;;;;;5012929;28;20049;-88
2023/02/10 10:17:05;;;;;;;104.13;35.97;;;3.40;99.90;;;;;;5019292;28;20096;-89
2023/02/10 10:20:29;;;;;;;88.03;31.67;;;3.50;99.90;;;;;;5000738;28;20026;-88
2023/02/10 10:23:23;;;;;;;89.07;33.33;;;3.50;99.90;;;;;;4931733;29;20028;-90
2023/02/10 10:26:10;;;;;;;88.45;31.40;;;3.60;99.90;;;;;;4952546;29;20023;-87
2023/02/10 10:28:38;;;;;;;96.07;32.20;;;3.60;99.90;;;;;;4997291;28;20438;-87
2023/02/10 10:31:09;;;;;;;95.10;32.72;;;3.70;99.90;;;;;;5021847;28;20105;-87
2023/02/10 10:33:45;;;;;;;91.18;31.63;;;3.80;99.90;;;;;;5018776;28;20025;-87
2023/02/10 10:36:17;;;;;;;91.75;31.05;;;3.90;99.90;;;;;;5004716;28;20056;-87
2023/02/10 10:38:53;;;;;;;89.03;32.22;;;4.00;99.90;;;;;;5006283;28;20018;-87
2023/02/10 10:41:23;;;;;;;82.43;30.52;;;4.10;99.90;;;;;;5008905;28;20378;-88
2023/02/10 10:44:03;;;;;;;86.87;29.80;;;4.20;99.90;;;;;;5000412;28;20109;-89
2023/02/10 10:46:39;;;;;;;84.35;30.88;;;4.20;99.90;;;;;;5003691;28;20348;-88
2023/02/10 10:49:08;;;;;;;91.82;32.47;;;4.30;99.90;;;;;;5008428;28;20166;-88
2023/02/10 10:51:34;;;;;;;84.75;32.05;;;4.40;99.90;;;;;;5008850;28;20029;-89
2023/02/10 10:54:03;;;;;;;86.72;31.15;;;4.50;99.90;;;;;;5008193;28;20053;-88
2023/02/10 10:56:44;;;;;;;94.28;33.13;;;4.60;99.90;;;;;;5017760;28;20029;-88
2023/02/10 10:59:13;;;;;;;108.15;32.90;;;4.70;99.90;;;;;;5009068;28;20018;-87
2023/02/10 11:01:43;;;;;;;80.22;32.20;;;4.80;99.90;;;;;;5021945;28;20069;-87
2023/02/10 11:04:33;;;;;;;88.22;31.13;;;4.80;99.90;;;;;;5023710;28;20072;-87
2023/02/10 11:07:01;;;;;;;81.90;29.10;;;5.00;99.90;;;;;;5014297;28;20018;-88
2023/02/10 11:09:40;;;;;;;86.97;30.70;;;5.10;99.90;;;;;;5016969;28;20018;-88
2023/02/10 11:12:29;;;;;;;77.32;28.70;;;5.10;99.90;;;;;;5019424;28;20041;-88
2023/02/10 11:14:59;;;;;;;77.65;28.95;;;5.20;99.90;;;;;;5014383;28;20089;-88
2023/02/10 11:17:47;;;;;;;81.13;29.65;;;5.30;99.90;;;;;;5014052;28;20080;-87
2023/02/10 11:20:13;;;;;;;79.47;29.40;;;5.40;99.90;;;;;;5045158;28;20029;-89
2023/02/10 11:22:40;;;;;;;79.75;28.20;;;5.50;99.90;;;;;;5037534;28;20018;-89
2023/02/10 11:25:27;;;;;;;76.72;29.85;;;5.60;99.90;;;;;;5044787;28;20033;-90
2023/02/10 11:27:56;;;;;;;76.05;28.95;;;5.70;99.90;;;;;;5036306;28;20036;-89
2023/02/10 11:30:28;;;;;;;63.95;26.95;;;5.80;99.90;;;;;;5032163;28;20018;-88
2023/02/10 11:32:55;;;;;;;69.57;27.33;;;6.00;99.90;;;;;;5032430;28;20029;-88
2023/02/10 11:35:24;;;;;;;69.28;26.95;;;6.10;99.90;;;;;;5022176;28;20049;-89
2023/02/10 11:37:59;;;;;;;61.42;25.25;;;6.20;99.90;;;;;;5021485;28;20044;-89
2023/02/10 11:40:48;;;;;;;58.50;25.00;;;6.30;99.90;;;;;;5040313;28;20036;-88
2023/02/10 11:43:15;;;;;;;65.32;27.13;;;6.40;99.90;;;;;;5034391;28;20029;-88
2023/02/10 11:45:52;;;;;;;61.55;26.00;;;6.50;99.90;;;;;;5007895;28;20022;-89
2023/02/10 11:48:21;;;;;;;55.10;22.48;;;6.60;99.90;;;;;;5037329;28;20034;-88
2023/02/10 11:51:01;;;;;;;57.80;24.05;;;6.60;99.90;;;;;;5043485;28;20028;-89
2023/02/10 11:53:30;;;;;;;54.38;23.35;;;6.70;99.90;;;;;;5045366;28;20079;-91
2023/02/10 11:56:17;;;;;;;55.95;24.48;;;6.80;99.90;;;;;;5028545;28;20097;-91
2023/02/10 11:59:03;;;;;;;48.97;21.20;;;6.90;99.90;;;;;;5022852;28;20044;-94
2023/02/10 12:01:31;;;;;;;51.20;22.88;;;7.10;99.90;;;;;;5026094;28;20081;-92
2023/02/10 12:04:23;;;;;;;47.55;21.55;;;7.20;99.90;;;;;;5005763;28;20372;-96
2023/02/10 12:07:20;;;;;;;46.75;20.83;;;7.30;99.90;;;;;;4981769;28;20104;-91
2023/02/10 12:09:45;;;;;;;54.15;21.33;;;7.40;99.90;;;;;;5049664;28;20033;-92
2023/02/10 12:12:39;;;;;;;50.60;20.42;;;7.50;99.90;;;;;;5025759;28;20017;-93
2023/02/10 12:15:43;;;;;;;43.78;19.55;;;7.60;99.90;;;;;;5011479;28;20021;-90
2023/02/10 12:18:48;;;;;;;46.28;19.23;;;7.70;99.90;;;;;;5022031;28;20030;-91
2023/02/10 12:21:33;;;;;;;38.65;17.17;;;7.80;99.90;;;;;;5047939;28;20033;-91
2023/02/10 12:24:11;;;;;;;42.50;18.77;;;7.90;99.90;;;;;;5019528;28;20027;-91
2023/02/10 12:26:59;;;;;;;41.85;18.05;;;8.00;99.90;;;;;;5023745;28;20028;-90
2023/02/10 12:29:57;;;;;;;41.65;18.40;;;8.10;99.90;;;;;;5018472;28;20063;-90
2023/02/10 12:33:00;;;;;;;36.40;18.02;;;8.20;99.90;;;;;;5028727;28;20053;-90
2023/02/10 12:35:47;;;;;;;39.22;17.40;;;8.30;99.90;;;;;;5020361;28;20030;-92
2023/02/10 12:38:18;;;;;;;42.90;17.48;;;8.40;99.90;;;;;;5018637;28;20100;-90
2023/02/10 12:41:07;;;;;;;45.90;17.67;;;8.50;99.90;;;;;;5024208;28;20021;-90
2023/02/10 12:44:21;;;;;;;36.88;16.77;;;8.60;99.90;;;;;;5041983;28;20109;-92
2023/02/10 12:47:01;;;;;;;36.03;15.77;;;8.70;99.90;;;;;;5016680;28;20038;-93
2023/02/10 12:49:51;;;;;;;37.40;15.23;;;8.80;99.90;;;;;;5019703;28;20113;-92
2023/02/10 12:52:40;;;;;;;34.55;15.55;;;8.90;99.90;;;;;;5023316;28;20018;-88
2023/02/10 12:55:23;;;;;;;31.30;14.98;;;9.00;99.90;;;;;;5024433;28;20101;-88